createdAt,value
2022-12-24T00:00:59.855Z,21.48
2022-12-24T00:03:27.208Z,23.88
2022-12-24T00:05:53.950Z,26.73
2022-12-24T00:08:20.705Z,20.98
2022-12-24T00:10:53.867Z,29.90
2022-12-24T00:13:21.034Z,22.60
2022-12-24T00:15:47.682Z,26.73
2022-12-24T00:18:14.410Z,25.63
2022-12-24T00:20:41.210Z,33.28
2022-12-24T00:23:08.095Z,24.05
2022-12-24T00:25:34.651Z,25.27
2022-12-24T00:28:01.244Z,32.90
2022-12-24T00:30:27.831Z,30.88
2022-12-24T00:32:54.664Z,30.00
2022-12-24T00:35:21.965Z,27.85
2022-12-24T00:37:48.961Z,26.48
2022-12-24T00:40:16.764Z,31.13
2022-12-24T00:42:43.459Z,35.92
2022-12-24T00:45:11.097Z,29.65
2022-12-24T00:47:37.726Z,40.00
2022-12-24T00:50:05.843Z,34.30
2022-12-24T00:52:32.418Z,37.90
2022-12-24T00:54:59.072Z,31.35
2022-12-24T00:57:25.727Z,38.85
2022-12-24T00:59:52.321Z,39.58
2022-12-24T01:02:19.188Z,37.00
2022-12-24T01:05:04.812Z,34.80
2022-12-24T01:07:31.434Z,38.72
2022-12-24T01:09:58.020Z,37.03
2022-12-24T01:12:25.536Z,31.83
2022-12-24T01:14:52.146Z,37.17
2022-12-24T01:17:18.775Z,32.53
2022-12-24T01:19:45.498Z,35.97
2022-12-24T01:22:12.113Z,37.17
2022-12-24T01:24:41.623Z,43.35
2022-12-24T01:27:08.803Z,40.92
2022-12-24T01:29:35.572Z,39.17
2022-12-24T01:32:02.164Z,35.97
2022-12-24T01:34:28.794Z,34.08
2022-12-24T01:36:55.333Z,45.13
2022-12-24T01:39:21.995Z,41.88
2022-12-24T01:42:07.084Z,37.10
2022-12-24T01:44:37.384Z,41.25
2022-12-24T01:47:11.425Z,36.92
2022-12-24T01:49:41.817Z,38.40
2022-12-24T01:52:16.921Z,41.38
2022-12-24T01:54:57.715Z,37.95
2022-12-24T01:57:49.151Z,40.92
2022-12-24T02:00:16.817Z,39.58
2022-12-24T02:02:50.527Z,37.63
2022-12-24T02:05:36.268Z,45.33
2022-12-24T02:08:04.784Z,42.88
2022-12-24T02:10:31.415Z,46.53
2022-12-24T02:12:59.945Z,41.63
2022-12-24T02:15:34.195Z,42.97
2022-12-24T02:18:24.062Z,40.35
2022-12-24T02:21:02.997Z,46.95
2022-12-24T02:23:29.528Z,44.75
2022-12-24T02:26:26.098Z,39.42
2022-12-24T02:29:45.442Z,41.63
2022-12-24T02:32:18.175Z,37.47
2022-12-24T02:34:56.635Z,45.80
2022-12-24T02:37:33.432Z,41.17
2022-12-24T02:40:22.720Z,38.22
2022-12-24T02:42:58.598Z,39.05
2022-12-24T02:45:34.462Z,38.40
2022-12-24T02:48:01.319Z,38.72
2022-12-24T02:50:28.694Z,37.72
2022-12-24T02:52:55.311Z,44.42
2022-12-24T02:55:36.574Z,41.17
2022-12-24T02:58:03.075Z,33.17
2022-12-24T03:00:55.885Z,41.28
2022-12-24T03:03:36.622Z,32.95
2022-12-24T03:06:19.997Z,36.60
2022-12-24T03:11:21.070Z,31.73
2022-12-24T03:13:49.645Z,31.65
2022-12-24T03:16:25.065Z,33.30
2022-12-24T03:18:53.692Z,44.22
2022-12-24T03:21:28.526Z,41.05
2022-12-24T03:23:55.731Z,33.78
2022-12-24T03:26:23.348Z,39.70
2022-12-24T03:28:50.388Z,47.13
2022-12-24T03:31:18.828Z,39.05
2022-12-24T03:33:46.319Z,42.03
2022-12-24T03:36:13.492Z,36.28
2022-12-24T03:38:40.101Z,44.42
2022-12-24T03:41:06.866Z,42.53
2022-12-24T03:43:33.605Z,37.03
2022-12-24T03:46:06.373Z,39.00
2022-12-24T03:48:35.561Z,37.72
2022-12-24T03:51:03.616Z,41.95
2022-12-24T03:53:30.217Z,40.40
2022-12-24T03:55:56.885Z,44.85
2022-12-24T03:58:23.422Z,36.05
2022-12-24T04:00:50.026Z,44.33
2022-12-24T04:03:16.729Z,37.17
2022-12-24T04:05:43.319Z,38.97
2022-12-24T04:08:09.872Z,34.13
2022-12-24T04:10:36.548Z,37.97
2022-12-24T04:13:03.152Z,35.00
2022-12-24T04:15:29.753Z,35.33
2022-12-24T04:17:56.322Z,43.95
2022-12-24T04:20:22.874Z,44.42
2022-12-24T04:22:49.400Z,41.75
2022-12-24T04:25:16.122Z,34.55
2022-12-24T04:27:42.687Z,45.45
2022-12-24T04:30:09.714Z,42.90
2022-12-24T04:32:36.308Z,53.08
2022-12-24T04:35:03.059Z,42.63
2022-12-24T04:37:29.770Z,42.10
2022-12-24T04:39:56.425Z,37.25
2022-12-24T04:42:22.972Z,40.40
2022-12-24T04:44:49.544Z,40.85
2022-12-24T04:47:16.484Z,37.40
2022-12-24T04:49:43.510Z,44.42
2022-12-24T04:52:10.035Z,35.72
2022-12-24T04:54:36.661Z,38.38
2022-12-24T04:57:03.199Z,46.40
2022-12-24T04:59:29.847Z,41.38
2022-12-24T05:01:56.574Z,36.95
2022-12-24T05:04:23.260Z,41.05
2022-12-24T05:06:49.841Z,41.90
2022-12-24T05:09:16.475Z,33.03
2022-12-24T05:11:43.035Z,47.38
2022-12-24T05:14:09.600Z,34.72
2022-12-24T05:16:36.327Z,42.50
2022-12-24T05:19:02.995Z,38.83
2022-12-24T05:21:29.569Z,45.40
2022-12-24T05:24:15.186Z,47.33
2022-12-24T05:26:48.251Z,31.30
2022-12-24T05:29:14.846Z,47.92
2022-12-24T05:31:43.484Z,51.55
2022-12-24T05:34:11.022Z,40.72
2022-12-24T05:36:38.205Z,40.13
2022-12-24T05:39:09.793Z,36.22
2022-12-24T05:41:40.216Z,48.63
2022-12-24T05:44:06.992Z,41.53
2022-12-24T05:46:33.603Z,45.05
2022-12-24T05:49:00.183Z,48.75
2022-12-24T05:51:26.770Z,44.35
2022-12-24T05:53:53.376Z,37.20
2022-12-24T05:56:23.955Z,43.95
2022-12-24T05:58:52.267Z,34.65
2022-12-24T06:01:20.100Z,27.08
2022-12-24T06:03:47.272Z,31.90
2022-12-24T06:06:19.380Z,33.25
2022-12-24T06:08:46.280Z,35.80
2022-12-24T06:11:14.691Z,39.92
2022-12-24T06:13:42.517Z,45.78
2022-12-24T06:16:14.402Z,44.92
2022-12-24T06:18:42.152Z,39.80
2022-12-24T06:21:09.811Z,39.88
2022-12-24T06:23:39.153Z,36.72
2022-12-24T06:26:07.365Z,41.90
2022-12-24T06:28:37.013Z,39.80
2022-12-24T06:31:06.032Z,47.22
2022-12-24T06:33:34.203Z,38.40
2022-12-24T06:36:01.613Z,36.70
2022-12-24T06:38:30.291Z,50.15
2022-12-24T06:40:57.144Z,42.60
2022-12-24T06:43:23.778Z,44.72
2022-12-24T06:45:50.410Z,49.80
2022-12-24T06:48:17.053Z,36.55
2022-12-24T06:50:44.251Z,43.65
2022-12-24T06:53:11.151Z,48.83
2022-12-24T06:55:38.364Z,48.83
2022-12-24T06:58:05.201Z,41.63
2022-12-24T07:00:31.871Z,51.33
2022-12-24T07:02:58.737Z,43.35
2022-12-24T07:05:25.503Z,46.25
2022-12-24T07:07:52.104Z,42.88
2022-12-24T07:10:19.891Z,47.70
2022-12-24T07:12:46.803Z,51.25
2022-12-24T07:15:14.281Z,41.42
2022-12-24T07:17:41.606Z,49.28
2022-12-24T07:20:12.374Z,48.40
2022-12-24T07:22:38.964Z,50.55
2022-12-24T07:25:06.041Z,45.03
2022-12-24T07:27:32.632Z,54.05
2022-12-24T07:29:59.223Z,52.25
2022-12-24T07:32:25.840Z,51.90
2022-12-24T07:34:52.417Z,60.85
2022-12-24T07:37:18.986Z,41.58
2022-12-24T07:39:45.696Z,38.85
2022-12-24T07:42:12.248Z,45.80
2022-12-24T07:44:38.934Z,43.63
2022-12-24T07:47:05.593Z,46.47
2022-12-24T07:49:32.288Z,39.20
2022-12-24T07:51:59.000Z,49.88
2022-12-24T07:54:25.750Z,41.50
2022-12-24T07:56:52.297Z,48.10
2022-12-24T07:59:19.013Z,52.50
2022-12-24T08:01:45.746Z,47.05
2022-12-24T08:04:12.669Z,52.67
2022-12-24T08:06:39.846Z,49.30
2022-12-24T08:09:06.473Z,52.10
2022-12-24T08:11:33.088Z,46.10
2022-12-24T08:13:59.755Z,50.53
2022-12-24T08:16:26.483Z,47.30
2022-12-24T08:18:53.077Z,66.15
2022-12-24T08:21:19.673Z,51.13
2022-12-24T08:23:47.161Z,58.58
2022-12-24T08:26:13.925Z,47.85
2022-12-24T08:28:40.663Z,61.08
2022-12-24T08:31:07.634Z,46.53
2022-12-24T08:33:34.483Z,51.25
2022-12-24T08:36:02.386Z,44.03
2022-12-24T08:38:29.500Z,57.00
2022-12-24T08:40:56.538Z,47.03
2022-12-24T08:43:25.519Z,42.83
2022-12-24T08:45:52.859Z,39.92
2022-12-24T08:48:19.936Z,43.92
2022-12-24T08:50:47.093Z,43.47
2022-12-24T08:53:14.054Z,43.38
2022-12-24T08:55:40.726Z,45.72
2022-12-24T08:58:07.487Z,51.97
2022-12-24T09:00:34.079Z,42.53
2022-12-24T09:03:00.853Z,49.28
2022-12-24T09:05:27.671Z,50.63
2022-12-24T09:07:55.469Z,45.90
2022-12-24T09:10:22.689Z,41.92
2022-12-24T09:12:49.307Z,53.10
2022-12-24T09:15:15.907Z,49.83
2022-12-24T09:17:42.871Z,52.95
2022-12-24T09:20:10.288Z,45.92
2022-12-24T09:22:38.644Z,47.50
2022-12-24T09:25:10.554Z,49.90
2022-12-24T09:27:37.965Z,56.28
2022-12-24T09:30:06.262Z,47.65
2022-12-24T09:32:33.988Z,43.65
2022-12-24T09:35:01.039Z,50.40
2022-12-24T09:37:27.633Z,44.00
2022-12-24T09:39:54.815Z,44.67
2022-12-24T09:42:48.679Z,46.78
2022-12-24T09:45:56.963Z,45.83
2022-12-24T09:48:29.348Z,42.75
2022-12-24T09:51:05.009Z,46.17
2022-12-24T09:53:47.949Z,47.45
2022-12-24T09:56:21.071Z,46.83
2022-12-24T09:58:58.443Z,33.25
2022-12-24T10:01:25.400Z,44.00
2022-12-24T10:03:52.269Z,41.42
2022-12-24T10:06:29.649Z,47.75
2022-12-24T10:09:24.649Z,37.00
2022-12-24T10:12:36.223Z,49.45
2022-12-24T10:15:30.754Z,36.45
2022-12-24T10:18:06.503Z,29.02
2022-12-24T10:20:56.374Z,39.70
2022-12-24T10:23:34.757Z,45.63
2022-12-24T10:26:27.002Z,45.55
2022-12-24T10:28:58.443Z,33.97
2022-12-24T10:31:42.216Z,36.28
2022-12-24T10:34:24.620Z,35.67
2022-12-24T10:36:51.992Z,37.08
2022-12-24T10:39:24.420Z,37.45
2022-12-24T10:41:57.994Z,35.83
2022-12-24T10:44:27.894Z,38.03
2022-12-24T10:46:54.654Z,42.95
2022-12-24T10:49:36.874Z,36.80
2022-12-24T10:54:39.374Z,47.88
2022-12-24T10:57:22.646Z,37.53
2022-12-24T10:59:55.062Z,35.72
2022-12-24T11:02:32.957Z,34.40
2022-12-24T11:05:02.061Z,40.85
2022-12-24T11:07:31.060Z,42.00
2022-12-24T11:10:03.532Z,44.55
2022-12-24T11:12:33.576Z,33.17
2022-12-24T11:15:14.880Z,47.42
2022-12-24T11:17:41.496Z,35.87
2022-12-24T11:20:18.365Z,40.22
2022-12-24T11:22:50.323Z,36.80
2022-12-24T11:25:29.029Z,35.00
2022-12-24T11:27:56.452Z,29.25
2022-12-24T11:30:32.106Z,36.88
2022-12-24T11:33:01.985Z,34.72
2022-12-24T11:35:32.840Z,36.65
2022-12-24T11:38:02.246Z,29.40
2022-12-24T11:40:36.668Z,33.88
2022-12-24T11:43:10.982Z,29.75
2022-12-24T11:45:51.149Z,31.98
2022-12-24T11:48:28.268Z,28.45
2022-12-24T11:51:06.791Z,27.08
2022-12-24T11:54:14.962Z,34.33
2022-12-24T11:56:47.208Z,23.20
2022-12-24T11:59:29.336Z,26.58
2022-12-24T12:02:05.067Z,23.38
2022-12-24T12:04:35.948Z,22.08
2022-12-24T12:07:15.120Z,25.23
2022-12-24T12:09:47.300Z,26.80
2022-12-24T12:12:21.583Z,20.05
2022-12-24T12:14:55.982Z,25.77
2022-12-24T12:17:32.505Z,34.65
2022-12-24T12:20:25.723Z,26.80
2022-12-24T12:23:04.454Z,24.05
2022-12-24T12:26:03.062Z,24.33
2022-12-24T12:28:41.469Z,23.27
2022-12-24T12:31:30.247Z,28.70
2022-12-24T12:34:12.017Z,24.40
2022-12-24T12:37:12.766Z,19.98
2022-12-24T12:39:41.606Z,22.15
2022-12-24T12:42:32.625Z,29.80
2022-12-24T12:45:02.244Z,25.17
2022-12-24T12:47:44.008Z,18.40
2022-12-24T12:50:19.608Z,21.65
2022-12-24T12:53:04.306Z,24.42
2022-12-24T12:55:43.022Z,23.13
2022-12-24T12:58:35.487Z,25.15
2022-12-24T13:04:02.344Z,17.80
2022-12-24T13:06:57.901Z,21.40
2022-12-24T13:09:33.519Z,19.60
2022-12-24T13:12:09.260Z,16.58
2022-12-24T13:14:57.548Z,25.10
2022-12-24T13:17:36.280Z,22.75
2022-12-24T13:20:25.037Z,23.42
2022-12-24T13:22:57.783Z,21.60
2022-12-24T13:25:34.569Z,18.85
2022-12-24T13:28:22.627Z,21.70
2022-12-24T13:31:02.214Z,20.58
2022-12-24T13:33:38.140Z,21.60
2022-12-24T13:36:11.912Z,18.15
2022-12-24T13:38:42.630Z,22.42
2022-12-24T13:41:39.217Z,22.60
2022-12-24T13:44:06.907Z,23.15
2022-12-24T13:46:56.966Z,22.63
2022-12-24T13:49:31.929Z,25.50
2022-12-24T13:52:10.721Z,22.55
2022-12-24T13:54:55.597Z,25.45
2022-12-24T13:57:33.776Z,20.13
2022-12-24T14:00:20.603Z,29.48
2022-12-24T14:03:02.722Z,27.73
2022-12-24T14:05:47.160Z,23.60
2022-12-24T14:08:23.105Z,28.60
2022-12-24T14:11:14.647Z,29.20
2022-12-24T14:13:41.316Z,24.80
2022-12-24T14:16:12.973Z,27.67
2022-12-24T14:18:42.179Z,23.92
2022-12-24T14:21:18.042Z,25.52
2022-12-24T14:23:51.619Z,22.52
2022-12-24T14:26:21.416Z,27.38
2022-12-24T14:29:00.941Z,18.42
2022-12-24T14:31:27.860Z,21.42
2022-12-24T14:34:12.469Z,24.77
2022-12-24T14:36:41.739Z,23.05
2022-12-24T14:39:11.571Z,20.75
2022-12-24T14:42:10.669Z,22.75
2022-12-24T14:44:53.363Z,23.77
2022-12-24T14:47:40.504Z,19.75
2022-12-24T14:50:39.685Z,26.33
2022-12-24T14:53:28.484Z,28.00
2022-12-24T14:55:55.052Z,19.05
2022-12-24T14:58:32.649Z,18.30
2022-12-24T15:01:18.132Z,21.60
2022-12-24T15:03:44.904Z,16.10
2022-12-24T15:06:14.291Z,20.45
2022-12-24T15:08:46.313Z,22.35
2022-12-24T15:13:53.377Z,19.25
2022-12-24T15:16:28.274Z,23.88
2022-12-24T15:18:58.567Z,20.63
2022-12-24T15:21:37.756Z,26.25
2022-12-24T15:24:04.918Z,21.45
2022-12-24T15:26:37.468Z,18.02
2022-12-24T15:29:21.000Z,22.30
2022-12-24T15:31:53.719Z,17.63
2022-12-24T15:34:37.261Z,16.77
2022-12-24T15:37:16.810Z,21.73
2022-12-24T15:39:44.324Z,28.55
2022-12-24T15:42:18.793Z,22.25
2022-12-24T15:45:01.968Z,22.73
2022-12-24T15:47:39.919Z,19.35
2022-12-24T15:50:18.231Z,14.98
2022-12-24T15:52:46.331Z,24.65
2022-12-24T15:55:31.328Z,20.92
2022-12-24T15:57:58.255Z,18.60
2022-12-24T16:00:31.030Z,15.60
2022-12-24T16:03:16.372Z,21.15
2022-12-24T16:05:43.025Z,19.27
2022-12-24T16:08:09.628Z,18.83
2022-12-24T16:10:39.810Z,20.85
2022-12-24T16:13:15.206Z,21.05
2022-12-24T16:16:03.143Z,14.52
2022-12-24T16:18:36.646Z,14.75
2022-12-24T16:21:04.621Z,19.05
2022-12-24T16:23:39.374Z,25.50
2022-12-24T16:26:06.230Z,18.80
2022-12-24T16:28:32.943Z,15.88
2022-12-24T16:30:59.850Z,23.75
2022-12-24T16:33:26.689Z,17.63
2022-12-24T16:35:53.381Z,35.88
2022-12-24T16:38:19.961Z,24.00
2022-12-24T16:40:47.130Z,22.98
2022-12-24T16:43:32.917Z,20.73
2022-12-24T16:46:05.473Z,25.95
2022-12-24T16:48:36.326Z,25.58
2022-12-24T16:51:02.983Z,20.02
2022-12-24T16:53:29.721Z,26.63
2022-12-24T16:55:56.432Z,20.23
2022-12-24T16:58:23.033Z,18.40
2022-12-24T17:00:49.733Z,21.58
2022-12-24T17:03:16.429Z,25.42
2022-12-24T17:05:44.409Z,25.00
2022-12-24T17:08:12.144Z,18.13
2022-12-24T17:10:39.387Z,20.85
2022-12-24T17:13:06.820Z,24.85
2022-12-24T17:15:33.850Z,26.35
2022-12-24T17:18:00.506Z,27.52
2022-12-24T17:20:27.106Z,32.50
2022-12-24T17:22:53.801Z,25.67
2022-12-24T17:25:20.464Z,21.67
2022-12-24T17:27:46.988Z,21.25
2022-12-24T17:30:13.794Z,16.83
2022-12-24T17:32:40.388Z,21.77
2022-12-24T17:35:08.015Z,24.55
2022-12-24T17:37:34.611Z,29.13
2022-12-24T17:40:01.458Z,22.95
2022-12-24T17:42:28.053Z,22.00
2022-12-24T17:44:54.583Z,21.90
2022-12-24T17:47:21.269Z,23.45
2022-12-24T17:49:47.842Z,28.65
2022-12-24T17:52:14.482Z,23.20
2022-12-24T17:54:41.087Z,28.58
2022-12-24T17:57:07.727Z,33.22
2022-12-24T17:59:34.344Z,19.17
2022-12-24T18:02:01.017Z,29.85
2022-12-24T18:04:27.656Z,29.52
2022-12-24T18:07:01.715Z,23.00
2022-12-24T18:09:29.566Z,28.23
2022-12-24T18:11:56.197Z,24.25
2022-12-24T18:14:22.829Z,28.83
2022-12-24T18:16:49.960Z,29.83
2022-12-24T18:19:16.681Z,23.73
2022-12-24T18:21:43.404Z,25.67
2022-12-24T18:24:12.412Z,23.92
2022-12-24T18:26:39.485Z,28.88
2022-12-24T18:29:08.793Z,29.00
2022-12-24T18:31:36.027Z,27.13
2022-12-24T18:34:04.704Z,28.25
2022-12-24T18:36:31.408Z,35.75
2022-12-24T18:38:58.126Z,26.95
2022-12-24T18:41:28.097Z,31.50
2022-12-24T18:43:55.827Z,26.00
2022-12-24T18:46:25.440Z,30.38
2022-12-24T18:48:53.305Z,36.15
2022-12-24T18:51:22.934Z,26.05
2022-12-24T18:53:50.738Z,26.33
2022-12-24T18:56:21.091Z,24.67
2022-12-24T18:58:47.777Z,25.73
2022-12-24T19:01:24.115Z,27.63
2022-12-24T19:03:51.102Z,28.92
2022-12-24T19:06:18.735Z,24.55
2022-12-24T19:08:57.196Z,26.55
2022-12-24T19:11:26.552Z,24.63
2022-12-24T19:13:53.517Z,25.08
2022-12-24T19:16:20.870Z,27.00
2022-12-24T19:18:47.862Z,23.80
2022-12-24T19:21:15.624Z,28.83
2022-12-24T19:23:42.552Z,33.90
2022-12-24T19:26:10.918Z,20.63
2022-12-24T19:28:37.839Z,21.85
2022-12-24T19:31:19.230Z,32.70
2022-12-24T19:33:48.418Z,21.47
2022-12-24T19:36:17.932Z,24.80
2022-12-24T19:38:44.675Z,21.73
2022-12-24T19:41:13.939Z,28.58
2022-12-24T19:43:42.869Z,30.10
2022-12-24T19:46:14.698Z,26.15
2022-12-24T19:51:11.321Z,27.98
2022-12-24T19:53:39.381Z,25.17
2022-12-24T19:56:06.792Z,26.63
2022-12-24T19:58:34.743Z,32.95
2022-12-24T20:01:14.920Z,28.63
2022-12-24T20:03:43.000Z,33.05
2022-12-24T20:06:09.934Z,32.28
2022-12-24T20:08:37.896Z,25.48
2022-12-24T20:11:07.113Z,36.38
2022-12-24T20:13:35.098Z,23.42
2022-12-24T20:16:06.738Z,23.55
2022-12-24T20:18:33.890Z,31.42
2022-12-24T20:21:02.232Z,35.80
2022-12-24T20:23:29.437Z,36.33
2022-12-24T20:26:01.454Z,19.20
2022-12-24T20:30:55.798Z,28.25
2022-12-24T20:33:22.882Z,35.10
2022-12-24T20:35:50.028Z,23.13
2022-12-24T20:38:16.660Z,21.08
2022-12-24T20:40:45.364Z,28.10
2022-12-24T20:43:12.979Z,29.23
2022-12-24T20:45:39.678Z,27.02
2022-12-24T20:48:07.278Z,23.63
2022-12-24T20:50:33.892Z,33.15
2022-12-24T20:53:00.516Z,28.35
2022-12-24T20:55:27.090Z,28.48
2022-12-24T20:57:53.631Z,27.83
2022-12-24T21:00:20.926Z,27.50
2022-12-24T21:02:47.637Z,27.65
2022-12-24T21:05:14.353Z,31.83
2022-12-24T21:07:42.964Z,31.73
2022-12-24T21:10:11.403Z,19.75
2022-12-24T21:12:50.388Z,23.20
2022-12-24T21:15:21.125Z,28.20
2022-12-24T21:17:48.238Z,33.30
2022-12-24T21:20:15.757Z,22.48
2022-12-24T21:22:42.339Z,24.33
2022-12-24T21:25:10.462Z,23.92
2022-12-24T21:27:37.088Z,25.73
2022-12-24T21:30:05.451Z,29.25
2022-12-24T21:32:32.143Z,27.20
2022-12-24T21:34:58.704Z,32.90
2022-12-24T21:37:25.341Z,23.67
2022-12-24T21:39:51.916Z,29.50
2022-12-24T21:42:18.542Z,26.08
2022-12-24T21:44:45.113Z,37.92
2022-12-24T21:47:11.709Z,27.38
2022-12-24T21:49:57.497Z,29.42
2022-12-24T21:52:24.127Z,31.55
2022-12-24T21:54:50.706Z,30.60
2022-12-24T21:57:35.924Z,29.90
2022-12-24T22:00:21.380Z,26.02
2022-12-24T22:02:57.994Z,32.42
2022-12-24T22:05:26.194Z,31.25
2022-12-24T22:08:13.013Z,20.67
2022-12-24T22:10:59.025Z,23.98
2022-12-24T22:13:26.087Z,15.88
2022-12-24T22:15:54.172Z,21.17
2022-12-24T22:18:23.671Z,21.73
2022-12-24T22:20:50.843Z,25.85
2022-12-24T22:23:18.352Z,19.60
2022-12-24T22:25:45.811Z,20.45
2022-12-24T22:28:12.478Z,18.85
2022-12-24T22:30:41.404Z,18.13
2022-12-24T22:33:08.787Z,27.33
2022-12-24T22:35:41.666Z,20.83
2022-12-24T22:38:09.945Z,20.02
2022-12-24T22:40:39.605Z,23.88
2022-12-24T22:43:06.223Z,30.70
2022-12-24T22:45:32.759Z,21.17
2022-12-24T22:47:59.331Z,25.55
2022-12-24T22:50:26.102Z,22.02
2022-12-24T22:52:53.828Z,23.30
2022-12-24T22:55:20.772Z,26.67
2022-12-24T22:57:47.386Z,26.00
2022-12-24T23:00:35.586Z,29.65
2022-12-24T23:03:02.237Z,22.15
2022-12-24T23:05:28.862Z,24.20
2022-12-24T23:07:55.448Z,30.58
2022-12-24T23:10:22.001Z,21.50
2022-12-24T23:13:11.216Z,20.02
2022-12-24T23:15:41.433Z,26.98
2022-12-24T23:18:08.526Z,20.80
2022-12-24T23:20:43.131Z,24.10
2022-12-24T23:23:09.761Z,26.05
2022-12-24T23:25:36.529Z,36.20
2022-12-24T23:28:03.272Z,28.83
2022-12-24T23:30:29.903Z,21.73
2022-12-24T23:32:56.521Z,24.98
2022-12-24T23:35:23.189Z,23.05
2022-12-24T23:37:49.825Z,28.23
2022-12-24T23:40:16.497Z,23.42
2022-12-24T23:42:43.222Z,26.00
2022-12-24T23:45:10.230Z,24.90
2022-12-24T23:47:36.855Z,17.27
2022-12-24T23:50:04.488Z,26.58
2022-12-24T23:52:31.891Z,19.90
2022-12-24T23:54:58.413Z,26.15
2022-12-24T23:57:25.008Z,26.27
2022-12-24T23:59:51.626Z,37.38
